Time;durP1;ratioP1;P1;durP2;ratioP2;P2;SDS_P1;SDS_P2;PMS_P1;PMS_P2;Temp;Humidity;BMP_temperature;BMP_pressure;BME280_temperature;BME280_humidity;BME280_pressure;Samples;Min_cycle;Max_cycle;Signal;HPM_P1;HPM_P2
2021/05/04 00:01:11;;;;;;;2.50;2.10;;;7.50;59.70;;;;;;6246139;22;20011;-90
2021/05/04 00:03:37;;;;;;;2.85;2.50;;;7.50;59.70;;;;;;6245309;22;20012;-91
2021/05/04 00:06:03;;;;;;;3.33;2.60;;;7.40;59.90;;;;;;6247153;23;20426;-90
2021/05/04 00:08:29;;;;;;;4.70;2.33;;;7.40;60.00;;;;;;6245769;23;20008;-91
2021/05/04 00:10:54;;;;;;;3.17;2.50;;;7.40;59.90;;;;;;6245710;22;20320;-91
2021/05/04 00:13:20;;;;;;;2.78;2.15;;;7.40;59.90;;;;;;6247226;22;20006;-91
2021/05/04 00:15:46;;;;;;;2.20;2.00;;;7.40;59.90;;;;;;6245884;22;20130;-90
2021/05/04 00:18:12;;;;;;;3.47;1.75;;;7.40;60.00;;;;;;6247019;22;20008;-91
2021/05/04 00:20:38;;;;;;;3.50;2.40;;;7.40;59.90;;;;;;6245728;22;20083;-90
2021/05/04 00:23:03;;;;;;;2.38;2.17;;;7.40;59.90;;;;;;6245616;23;20036;-90
2021/05/04 00:25:29;;;;;;;3.45;2.10;;;7.40;59.90;;;;;;6245920;23;20460;-90
2021/05/04 00:27:55;;;;;;;2.08;1.77;;;7.40;59.90;;;;;;6245872;23;20312;-90
2021/05/04 00:30:21;;;;;;;2.38;2.15;;;7.40;59.90;;;;;;6245423;22;20420;-90
2021/05/04 00:32:46;;;;;;;2.58;1.90;;;7.40;59.90;;;;;;6247076;23;19993;-90
2021/05/04 00:35:12;;;;;;;3.17;2.28;;;7.40;59.90;;;;;;6245575;23;20004;-90
2021/05/04 00:37:38;;;;;;;2.10;1.90;;;7.40;59.90;;;;;;6246038;22;20044;-90
2021/05/04 00:40:04;;;;;;;2.60;2.22;;;7.30;59.90;;;;;;6222369;23;20007;-90
2021/05/04 00:42:30;;;;;;;2.75;2.35;;;7.30;60.10;;;;;;6247139;22;20084;-90
2021/05/04 00:44:56;;;;;;;4.32;2.97;;;7.30;60.20;;;;;;6247690;22;20035;-90
2021/05/04 00:47:21;;;;;;;2.85;2.20;;;7.30;60.50;;;;;;6249168;22;20372;-90
2021/05/04 00:49:47;;;;;;;3.42;2.28;;;7.30;60.50;;;;;;6247206;23;20000;-91
2021/05/04 00:52:13;;;;;;;3.92;2.40;;;7.30;60.40;;;;;;6247407;23;20073;-90
2021/05/04 00:54:40;;;;;;;2.30;2.10;;;7.30;60.50;;;;;;6250010;22;20412;-91
2021/05/04 00:57:08;;;;;;;3.25;2.53;;;7.20;60.60;;;;;;6249264;22;20328;-90
2021/05/04 00:59:36;;;;;;;3.05;2.17;;;7.20;60.80;;;;;;6248577;23;20509;-90
2021/05/04 01:02:02;;;;;;;2.50;2.25;;;7.20;60.70;;;;;;6249629;23;20008;-90
2021/05/04 01:04:28;;;;;;;2.58;2.15;;;7.10;60.90;;;;;;6249148;22;20026;-90
2021/05/04 01:06:54;;;;;;;2.90;2.60;;;7.10;61.20;;;;;;6247554;22;20012;-90
2021/05/04 01:09:19;;;;;;;3.50;2.58;;;7.10;61.40;;;;;;6248112;22;20340;-90
2021/05/04 01:11:46;;;;;;;2.83;2.00;;;7.10;61.40;;;;;;6255984;22;20087;-90
2021/05/04 01:14:13;;;;;;;2.50;2.22;;;7.10;61.10;;;;;;6259179;23;19996;-90
2021/05/04 01:16:43;;;;;;;2.25;2.00;;;7.00;61.60;;;;;;6249398;22;20000;-90
2021/05/04 01:19:09;;;;;;;2.58;2.38;;;7.00;61.50;;;;;;6247620;22;20084;-91
2021/05/04 01:21:36;;;;;;;2.60;1.90;;;7.00;61.70;;;;;;6247162;22;20008;-90
2021/05/04 01:24:02;;;;;;;3.33;2.28;;;7.00;61.70;;;;;;6247551;22;20481;-91
2021/05/04 01:26:28;;;;;;;2.72;2.38;;;6.90;61.80;;;;;;6247332;23;20326;-90
2021/05/04 01:28:54;;;;;;;3.78;2.10;;;6.90;62.00;;;;;;6248665;22;20027;-91
2021/05/04 01:31:19;;;;;;;1.95;1.73;;;6.90;62.20;;;;;;6247229;22;20011;-90
2021/05/04 01:33:45;;;;;;;1.98;1.88;;;6.90;62.10;;;;;;6248793;22;20407;-90
2021/05/04 01:36:11;;;;;;;3.05;2.60;;;6.90;62.20;;;;;;6247225;23;20309;-91
2021/05/04 01:38:37;;;;;;;2.35;2.10;;;6.80;62.40;;;;;;6247897;22;20013;-90
2021/05/04 01:41:03;;;;;;;2.70;2.15;;;6.80;62.60;;;;;;6247581;23;20522;-90
2021/05/04 01:43:29;;;;;;;2.55;2.05;;;6.80;62.30;;;;;;6248327;23;19996;-90
2021/05/04 01:45:55;;;;;;;3.00;2.00;;;6.80;62.40;;;;;;6247239;22;20031;-90
2021/05/04 01:48:21;;;;;;;3.20;2.13;;;6.70;62.60;;;;;;6248505;23;20000;-92
2021/05/04 01:50:46;;;;;;;2.55;1.95;;;6.70;62.70;;;;;;6248151;22;20023;-91
2021/05/04 01:53:12;;;;;;;2.30;1.90;;;6.70;62.80;;;;;;6246763;22;20443;-90
2021/05/04 01:55:38;;;;;;;2.72;2.10;;;6.60;62.90;;;;;;6247025;22;20427;-90
2021/05/04 01:58:03;;;;;;;3.08;2.17;;;6.60;63.00;;;;;;6246958;22;20012;-90
2021/05/04 02:00:29;;;;;;;2.22;2.03;;;6.60;63.40;;;;;;6246965;22;20004;-90
2021/05/04 02:02:55;;;;;;;2.72;2.00;;;6.50;63.30;;;;;;6246939;22;20058;-90
2021/05/04 02:05:21;;;;;;;2.47;2.28;;;6.50;63.30;;;;;;6248378;22;20062;-90
2021/05/04 02:07:46;;;;;;;3.33;2.40;;;6.50;63.70;;;;;;6246437;23;20059;-90
2021/05/04 02:10:12;;;;;;;3.17;2.42;;;6.40;64.10;;;;;;6246847;22;20008;-90
2021/05/04 02:12:41;;;;;;;2.90;2.42;;;6.40;64.00;;;;;;6246842;23;20000;-90
2021/05/04 02:15:09;;;;;;;2.95;2.10;;;6.40;64.00;;;;;;6246614;23;20079;-90
2021/05/04 02:17:35;;;;;;;2.75;2.28;;;6.40;64.10;;;;;;6246538;22;20008;-91
2021/05/04 02:20:00;;;;;;;4.30;2.60;;;6.30;64.30;;;;;;6247471;23;20062;-90
2021/05/04 02:22:26;;;;;;;2.78;2.40;;;6.20;64.60;;;;;;6246121;22;20004;-90
2021/05/04 02:24:52;;;;;;;2.63;2.10;;;6.20;64.50;;;;;;6246328;23;19996;-90
2021/05/04 02:27:18;;;;;;;4.75;2.10;;;6.10;64.70;;;;;;6248156;22;20000;-90
2021/05/04 02:29:43;;;;;;;2.60;2.13;;;6.10;65.00;;;;;;6246734;23;20035;-90
2021/05/04 02:32:10;;;;;;;4.35;2.45;;;6.00;65.60;;;;;;6246680;23;20320;-91
2021/05/04 02:34:35;;;;;;;2.40;1.92;;;6.00;65.60;;;;;;6246213;22;20015;-90
2021/05/04 02:37:01;;;;;;;2.45;2.25;;;5.90;65.60;;;;;;6247743;23;20071;-90
2021/05/04 02:39:27;;;;;;;2.53;2.20;;;5.90;66.20;;;;;;6246467;23;20016;-90
2021/05/04 02:41:52;;;;;;;2.90;2.22;;;5.90;66.30;;;;;;6246887;23;20012;-90
2021/05/04 02:44:18;;;;;;;2.60;2.40;;;5.80;66.50;;;;;;6246374;23;20447;-90
2021/05/04 02:46:44;;;;;;;5.00;2.30;;;5.80;66.70;;;;;;6246355;22;20000;-91
2021/05/04 02:49:09;;;;;;;2.00;1.90;;;5.80;67.00;;;;;;6246591;22;20008;-90
2021/05/04 02:51:35;;;;;;;3.90;2.72;;;5.70;67.20;;;;;;6247862;23;20465;-90
2021/05/04 02:54:01;;;;;;;3.50;2.50;;;5.70;67.80;;;;;;6247972;23;20012;-90
2021/05/04 02:56:26;;;;;;;3.55;2.40;;;5.70;68.00;;;;;;6248062;23;20000;-90
2021/05/04 02:58:52;;;;;;;3.38;2.45;;;5.70;67.80;;;;;;6247737;22;20412;-90
2021/05/04 03:01:18;;;;;;;4.93;2.28;;;5.80;67.90;;;;;;6245757;23;19996;-90
2021/05/04 03:03:44;;;;;;;4.63;2.60;;;5.70;67.60;;;;;;6246182;23;20015;-91
2021/05/04 03:06:10;;;;;;;2.17;1.95;;;5.80;68.00;;;;;;6246791;22;20004;-91
2021/05/04 03:08:36;;;;;;;3.40;2.70;;;5.80;68.20;;;;;;6246248;22;20005;-91
2021/05/04 03:11:02;;;;;;;4.60;2.95;;;5.90;68.10;;;;;;6247724;22;20000;-91
2021/05/04 03:13:30;;;;;;;2.53;2.20;;;6.00;68.10;;;;;;6246253;23;20032;-90
2021/05/04 03:15:57;;;;;;;2.83;2.60;;;6.00;67.90;;;;;;6246267;23;20011;-91
2021/05/04 03:18:24;;;;;;;3.80;2.60;;;6.10;68.10;;;;;;6247387;22;20012;-91
2021/05/04 03:20:51;;;;;;;3.30;2.50;;;6.10;68.20;;;;;;6246172;22;20501;-91
2021/05/04 03:23:19;;;;;;;2.92;2.58;;;6.20;68.00;;;;;;6247012;22;20004;-91
2021/05/04 03:25:45;;;;;;;3.42;2.75;;;6.20;67.90;;;;;;6245977;23;20004;-90
2021/05/04 03:28:10;;;;;;;3.80;2.97;;;6.30;68.50;;;;;;6246041;23;20139;-90
2021/05/04 03:30:37;;;;;;;4.15;2.50;;;6.30;68.30;;;;;;6247488;23;20036;-90
2021/05/04 03:33:03;;;;;;;4.38;2.95;;;6.40;68.10;;;;;;6246137;23;20007;-90
2021/05/04 03:35:29;;;;;;;3.92;2.72;;;6.40;68.40;;;;;;6245997;23;20000;-90
2021/05/04 03:37:55;;;;;;;3.17;2.42;;;6.50;68.10;;;;;;6247407;22;20007;-90
2021/05/04 03:40:20;;;;;;;3.08;2.58;;;6.50;68.10;;;;;;6246028;23;20416;-91
2021/05/04 03:42:46;;;;;;;3.63;3.10;;;6.60;68.00;;;;;;6248104;23;20003;-90
2021/05/04 03:45:12;;;;;;;3.25;2.85;;;6.70;68.10;;;;;;6245980;23;20419;-90
2021/05/04 03:47:39;;;;;;;4.20;3.20;;;6.70;68.10;;;;;;6246251;23;20058;-90
2021/05/04 03:50:08;;;;;;;4.55;2.83;;;6.80;68.10;;;;;;6245743;22;20011;-90
2021/05/04 03:52:33;;;;;;;3.30;2.72;;;6.80;67.60;;;;;;6245442;23;20055;-90
2021/05/04 03:54:59;;;;;;;3.83;2.72;;;6.90;67.70;;;;;;6247184;23;20415;-90
2021/05/04 03:57:25;;;;;;;3.25;2.70;;;7.00;67.50;;;;;;6220683;23;20079;-90
2021/05/04 03:59:51;;;;;;;3.22;2.75;;;7.10;67.50;;;;;;6246873;22;19996;-90
2021/05/04 04:02:17;;;;;;;5.22;3.00;;;7.10;67.50;;;;;;6245643;22;20008;-90
2021/05/04 04:04:43;;;;;;;4.75;3.63;;;7.20;67.50;;;;;;6246255;22;20000;-89
2021/05/04 04:07:09;;;;;;;4.40;2.80;;;7.30;67.30;;;;;;6247236;22;20020;-90
2021/05/04 04:09:34;;;;;;;3.55;2.83;;;7.40;67.10;;;;;;6245790;23;19997;-90
2021/05/04 04:12:00;;;;;;;3.95;3.00;;;7.50;67.00;;;;;;6245638;23;20039;-90
2021/05/04 04:14:26;;;;;;;4.43;2.95;;;7.60;66.80;;;;;;6247030;23;20067;-90
2021/05/04 04:16:51;;;;;;;4.07;2.80;;;7.70;66.40;;;;;;6245557;22;20046;-90
2021/05/04 04:19:17;;;;;;;4.32;3.00;;;7.70;66.20;;;;;;6246994;22;20004;-90
2021/05/04 04:21:43;;;;;;;4.60;2.92;;;7.80;66.00;;;;;;6247317;23;20388;-90
2021/05/04 04:24:09;;;;;;;4.40;3.10;;;7.90;65.80;;;;;;6245809;22;20019;-89
2021/05/04 04:26:34;;;;;;;4.38;3.17;;;8.00;65.60;;;;;;6245935;22;20008;-90
2021/05/04 04:29:00;;;;;;;3.95;3.15;;;8.00;65.20;;;;;;6246949;23;20000;-90
2021/05/04 04:31:26;;;;;;;3.88;3.03;;;8.10;65.00;;;;;;6246062;22;20443;-89
2021/05/04 04:33:52;;;;;;;4.82;3.60;;;8.20;65.00;;;;;;6245236;23;20000;-89
2021/05/04 04:36:17;;;;;;;7.50;2.90;;;8.30;64.70;;;;;;6245675;22;20011;-89
2021/05/04 04:38:43;;;;;;;3.78;2.92;;;8.30;64.40;;;;;;6245908;23;20009;-89
2021/05/04 04:41:09;;;;;;;3.83;3.25;;;8.40;64.20;;;;;;6245497;22;20083;-89
2021/05/04 04:43:34;;;;;;;3.70;3.30;;;8.50;64.00;;;;;;6245644;23;20353;-90
2021/05/04 04:46:00;;;;;;;4.88;3.58;;;8.50;63.30;;;;;;6245395;23;20012;-90
2021/05/04 04:48:26;;;;;;;4.15;3.65;;;8.60;63.40;;;;;;6245568;22;20455;-90
2021/05/04 04:50:52;;;;;;;6.07;3.50;;;8.60;63.20;;;;;;6245660;22;20004;-90
2021/05/04 04:53:17;;;;;;;7.43;3.50;;;8.60;63.20;;;;;;6245304;22;20024;-90
2021/05/04 04:55:43;;;;;;;5.28;3.78;;;8.70;63.10;;;;;;6245026;22;20066;-90
2021/05/04 04:58:09;;;;;;;4.45;3.78;;;8.70;62.90;;;;;;6246792;22;20305;-90
2021/05/04 05:00:34;;;;;;;3.75;3.30;;;8.70;62.80;;;;;;6245294;22;20000;-89
2021/05/04 05:03:00;;;;;;;3.80;3.40;;;8.80;62.80;;;;;;6245391;22;20001;-90
2021/05/04 05:05:26;;;;;;;5.53;3.80;;;8.80;62.80;;;;;;6220974;23;20013;-90
2021/05/04 05:07:51;;;;;;;3.97;3.33;;;8.90;62.80;;;;;;6245170;22;20082;-91
2021/05/04 05:10:17;;;;;;;4.68;3.90;;;9.00;62.50;;;;;;6246920;23;20343;-91
2021/05/04 05:12:43;;;;;;;4.90;4.22;;;9.00;62.60;;;;;;6245951;22;20366;-90
2021/05/04 05:15:09;;;;;;;4.43;3.60;;;9.00;62.50;;;;;;6247017;22;19996;-90
2021/05/04 05:17:35;;;;;;;4.40;3.10;;;9.10;62.60;;;;;;6245379;22;20012;-91
2021/05/04 05:20:01;;;;;;;3.50;3.20;;;9.20;62.60;;;;;;6246210;22;20424;-91
2021/05/04 05:22:27;;;;;;;4.82;3.85;;;9.30;62.00;;;;;;6245136;23;20416;-90
2021/05/04 05:24:55;;;;;;;5.68;3.47;;;9.40;62.00;;;;;;6247356;22;20035;-90
2021/05/04 05:27:21;;;;;;;4.22;3.13;;;9.50;61.90;;;;;;6247208;23;20371;-90
2021/05/04 05:29:47;;;;;;;8.20;4.00;;;9.60;61.60;;;;;;6247154;22;20007;-90
2021/05/04 05:32:13;;;;;;;4.72;4.00;;;9.70;60.90;;;;;;6248764;22;20091;-90
2021/05/04 05:34:39;;;;;;;4.93;3.42;;;9.80;60.70;;;;;;6246897;22;20008;-90
2021/05/04 05:37:05;;;;;;;4.53;3.35;;;9.80;60.80;;;;;;6246901;22;20008;-90
2021/05/04 05:39:30;;;;;;;4.43;3.55;;;9.90;60.80;;;;;;6247219;22;20015;-91
2021/05/04 05:41:56;;;;;;;5.00;3.72;;;10.00;60.70;;;;;;6249052;23;19996;-90
2021/05/04 05:44:22;;;;;;;5.28;3.58;;;10.00;60.00;;;;;;6248595;22;20049;-89
2021/05/04 05:46:49;;;;;;;4.85;3.95;;;10.10;60.70;;;;;;6246544;22;20031;-91
2021/05/04 05:49:14;;;;;;;5.30;4.10;;;10.10;59.70;;;;;;6246595;22;20000;-90
2021/05/04 05:51:40;;;;;;;4.63;3.60;;;10.10;59.40;;;;;;6247103;22;20007;-90
2021/05/04 05:54:06;;;;;;;8.52;3.70;;;10.20;59.60;;;;;;6248190;22;20016;-90
2021/05/04 05:56:32;;;;;;;5.55;4.07;;;10.30;59.80;;;;;;6246644;23;20074;-91
2021/05/04 05:58:58;;;;;;;6.25;3.90;;;10.40;59.00;;;;;;6247495;22;20012;-90
2021/05/04 06:01:24;;;;;;;4.32;3.92;;;10.40;59.10;;;;;;6246254;22;20574;-90
2021/05/04 06:03:50;;;;;;;4.50;3.83;;;10.40;59.00;;;;;;6246892;22;20297;-89
2021/05/04 06:06:17;;;;;;;3.97;3.50;;;10.50;58.50;;;;;;6246561;22;20089;-91
2021/05/04 06:08:43;;;;;;;5.72;4.30;;;10.60;58.60;;;;;;6246539;23;19996;-90
2021/05/04 06:11:09;;;;;;;3.97;3.55;;;10.60;58.40;;;;;;6247296;22;20007;-90
2021/05/04 06:13:34;;;;;;;5.07;3.80;;;10.70;58.20;;;;;;6247935;22;19996;-89
2021/05/04 06:16:00;;;;;;;4.20;3.60;;;10.70;57.50;;;;;;6246738;22;20431;-90
2021/05/04 06:18:26;;;;;;;6.15;4.63;;;10.80;57.60;;;;;;6246989;22;20015;-89
2021/05/04 06:20:51;;;;;;;5.28;3.33;;;10.90;57.30;;;;;;6246479;22;20004;-89
2021/05/04 06:23:17;;;;;;;4.53;3.88;;;11.00;57.30;;;;;;6246787;22;20004;-90
2021/05/04 06:25:43;;;;;;;4.65;3.53;;;11.20;56.60;;;;;;6246491;22;20494;-90
2021/05/04 06:28:09;;;;;;;4.78;3.47;;;11.30;56.40;;;;;;6246191;22;20420;-89
2021/05/04 06:30:38;;;;;;;6.45;3.22;;;11.30;56.60;;;;;;6246211;22;20011;-90
2021/05/04 06:33:07;;;;;;;3.28;2.97;;;11.50;56.40;;;;;;6247832;22;20055;-88
2021/05/04 06:35:36;;;;;;;2.75;2.55;;;11.60;56.20;;;;;;6246652;22;20085;-89
2021/05/04 06:38:05;;;;;;;5.13;3.67;;;11.80;56.10;;;;;;6245865;23;20054;-89
2021/05/04 06:40:32;;;;;;;4.55;3.38;;;11.90;54.90;;;;;;6246441;22;20483;-88
2021/05/04 06:42:58;;;;;;;5.32;3.75;;;11.90;54.40;;;;;;6247033;22;20004;-90
2021/05/04 06:45:24;;;;;;;3.90;3.50;;;12.00;53.90;;;;;;6247874;22;20000;-90
2021/05/04 06:47:54;;;;;;;3.95;3.45;;;12.00;54.00;;;;;;6246627;22;20007;-91
2021/05/04 06:50:21;;;;;;;4.13;3.63;;;12.10;54.10;;;;;;6240619;23;20008;-90
2021/05/04 06:52:47;;;;;;;3.63;3.13;;;12.10;53.70;;;;;;6246949;22;20038;-90
2021/05/04 06:55:13;;;;;;;4.68;3.08;;;12.20;53.40;;;;;;6245938;23;20000;-89
2021/05/04 06:57:39;;;;;;;5.32;3.25;;;12.20;53.20;;;;;;6247534;22;20035;-90
2021/05/04 07:00:06;;;;;;;4.63;3.42;;;12.30;53.00;;;;;;6246439;23;20004;-90
2021/05/04 07:02:33;;;;;;;5.72;3.70;;;12.40;52.30;;;;;;6247936;22;20261;-90
2021/05/04 07:04:59;;;;;;;4.28;3.40;;;12.50;52.00;;;;;;6248138;23;20032;-91
2021/05/04 07:07:25;;;;;;;4.00;3.58;;;12.60;51.60;;;;;;6257223;23;20004;-92
2021/05/04 07:09:50;;;;;;;3.72;3.38;;;12.70;51.40;;;;;;6261564;23;20439;-91
2021/05/04 07:12:16;;;;;;;4.65;3.70;;;12.80;51.10;;;;;;6257100;22;20019;-93
2021/05/04 07:14:42;;;;;;;4.55;3.28;;;12.80;50.70;;;;;;6258050;23;20000;-93
2021/05/04 07:17:07;;;;;;;4.57;3.63;;;12.90;50.40;;;;;;6262158;22;20301;-93
2021/05/04 07:19:37;;;;;;;3.85;3.38;;;12.90;49.00;;;;;;6259813;23;20016;-92
2021/05/04 07:22:03;;;;;;;3.83;3.03;;;12.80;48.90;;;;;;6262897;22;20016;-90
2021/05/04 07:24:28;;;;;;;3.95;3.42;;;12.90;49.40;;;;;;6257051;22;20004;-91
2021/05/04 07:26:54;;;;;;;4.38;3.15;;;12.90;49.00;;;;;;6250685;22;20004;-93
2021/05/04 07:29:22;;;;;;;4.13;3.17;;;12.90;49.00;;;;;;6249990;23;20116;-92
2021/05/04 07:31:48;;;;;;;5.38;3.28;;;12.90;49.10;;;;;;6247454;22;20446;-91
2021/05/04 07:34:13;;;;;;;4.72;3.80;;;12.90;49.50;;;;;;6247419;23;20005;-94
2021/05/04 07:36:39;;;;;;;4.30;3.40;;;12.90;49.50;;;;;;6247669;23;20386;-92
2021/05/04 07:39:05;;;;;;;4.35;3.75;;;12.90;49.60;;;;;;6222179;23;20497;-93
2021/05/04 07:41:31;;;;;;;5.47;3.47;;;13.00;49.30;;;;;;6248326;22;20004;-91
2021/05/04 07:43:57;;;;;;;5.07;3.60;;;12.90;49.30;;;;;;6248218;22;20004;-92
2021/05/04 07:46:23;;;;;;;3.85;3.45;;;12.90;49.70;;;;;;6246936;22;20064;-93
2021/05/04 07:48:49;;;;;;;4.05;3.17;;;12.90;49.70;;;;;;6246599;22;20011;-91
2021/05/04 07:51:15;;;;;;;3.63;3.15;;;13.00;50.00;;;;;;6246103;22;20090;-92
2021/05/04 07:53:40;;;;;;;5.28;3.60;;;13.00;49.50;;;;;;6246616;22;20094;-92
2021/05/04 07:56:06;;;;;;;4.63;2.88;;;13.10;48.80;;;;;;6246792;23;20003;-91
2021/05/04 07:58:32;;;;;;;3.15;2.75;;;13.10;48.80;;;;;;6221086;23;20019;-91
2021/05/04 08:00:58;;;;;;;3.83;3.40;;;13.10;48.40;;;;;;6247796;23;20301;-92
2021/05/04 08:03:23;;;;;;;2.55;2.35;;;13.30;47.10;;;;;;6246650;23;20415;-92
2021/05/04 08:05:51;;;;;;;4.47;3.25;;;13.40;46.20;;;;;;6248025;22;20432;-93
2021/05/04 08:08:17;;;;;;;5.53;2.85;;;13.40;46.10;;;;;;6245153;22;20012;-92
2021/05/04 08:10:43;;;;;;;4.75;3.10;;;13.50;45.80;;;;;;6247865;22;20087;-92
2021/05/04 08:13:09;;;;;;;3.42;2.65;;;13.50;44.20;;;;;;6246778;22;19997;-94
2021/05/04 08:15:36;;;;;;;5.38;2.90;;;13.40;44.50;;;;;;6245516;22;20058;-92
2021/05/04 08:18:04;;;;;;;4.13;3.00;;;13.30;44.50;;;;;;6244490;22;20036;-93
2021/05/04 08:20:33;;;;;;;5.15;2.97;;;13.20;44.30;;;;;;6245015;22;20039;-92
2021/05/04 08:23:00;;;;;;;3.08;2.55;;;13.20;44.50;;;;;;6246309;22;20000;-94
2021/05/04 08:25:26;;;;;;;5.53;3.05;;;13.10;44.40;;;;;;6246186;22;20035;-91
2021/05/04 08:28:11;;;;;;;3.38;2.35;;;13.00;44.50;;;;;;6247195;22;20004;-92
2021/05/04 08:30:37;;;;;;;4.00;3.13;;;12.90;43.20;;;;;;6247099;23;20003;-92
2021/05/04 08:33:04;;;;;;;3.28;2.83;;;12.80;43.80;;;;;;6221258;23;20001;-91
2021/05/04 08:35:30;;;;;;;4.78;3.15;;;12.60;45.50;;;;;;6247344;23;20003;-91
2021/05/04 08:37:57;;;;;;;4.63;2.70;;;12.50;46.60;;;;;;6245784;22;20008;-92
2021/05/04 08:40:23;;;;;;;3.70;2.80;;;12.50;47.50;;;;;;6221155;23;20004;-91
2021/05/04 08:42:50;;;;;;;3.42;2.90;;;12.50;47.70;;;;;;6246701;22;20396;-91
2021/05/04 08:45:16;;;;;;;4.93;3.47;;;12.60;47.70;;;;;;6246613;22;20005;-91
2021/05/04 08:47:47;;;;;;;4.15;2.90;;;12.70;47.30;;;;;;6247564;22;19996;-92
2021/05/04 08:50:14;;;;;;;3.28;2.97;;;12.70;48.20;;;;;;6247634;22;20265;-91
2021/05/04 08:52:41;;;;;;;4.15;3.20;;;12.60;48.70;;;;;;6246064;22;20020;-92
2021/05/04 08:55:07;;;;;;;4.00;3.03;;;12.50;49.40;;;;;;6247171;23;20008;-90
2021/05/04 08:57:36;;;;;;;7.07;3.08;;;12.60;49.50;;;;;;6247800;22;19996;-90
2021/05/04 09:00:04;;;;;;;5.07;3.45;;;12.60;48.80;;;;;;6247685;22;20412;-91
2021/05/04 09:02:38;;;;;;;3.65;3.03;;;12.60;49.10;;;;;;6249278;22;20007;-90
2021/05/04 09:05:14;;;;;;;4.15;2.92;;;12.70;48.30;;;;;;6247686;23;20416;-90
2021/05/04 09:07:40;;;;;;;3.58;2.45;;;12.80;48.70;;;;;;6247951;23;20004;-90
2021/05/04 09:12:41;;;;;;;4.32;3.35;;;13.10;47.90;;;;;;6248690;22;20086;-90
2021/05/04 09:21:33;;;;;;;3.15;2.65;;;12.90;47.90;;;;;;6219281;22;20011;-91
2021/05/04 09:24:15;;;;;;;3.75;2.33;;;12.90;47.30;;;;;;6248520;22;19992;-92
2021/05/04 09:26:41;;;;;;;4.18;2.33;;;12.90;47.90;;;;;;6246969;23;20491;-93
2021/05/04 09:29:09;;;;;;;2.72;1.92;;;13.10;47.20;;;;;;6221886;23;20100;-91
2021/05/04 09:31:36;;;;;;;2.92;2.38;;;13.30;46.50;;;;;;6246996;22;20078;-91
2021/05/04 09:34:15;;;;;;;4.47;2.60;;;13.40;45.20;;;;;;6247404;22;20008;-94
2021/05/04 09:36:43;;;;;;;3.13;2.67;;;13.40;44.80;;;;;;6249700;23;20424;-93
2021/05/04 09:39:11;;;;;;;2.75;2.47;;;13.30;43.90;;;;;;6248043;22;20011;-93
2021/05/04 09:41:37;;;;;;;2.40;2.20;;;13.30;43.90;;;;;;6249159;22;20478;-92
2021/05/04 09:44:04;;;;;;;2.67;2.47;;;13.30;43.70;;;;;;6248338;22;20000;-93
2021/05/04 09:46:49;;;;;;;3.40;2.58;;;13.30;43.50;;;;;;6248269;22;19996;-93
2021/05/04 09:49:28;;;;;;;3.50;2.67;;;13.30;43.50;;;;;;6246582;22;20007;-92
2021/05/04 09:55:15;;;;;;;3.13;2.42;;;13.70;42.70;;;;;;6249848;22;20016;-92
2021/05/04 09:57:49;;;;;;;2.65;2.28;;;13.80;42.20;;;;;;6262497;23;20035;-90
2021/05/04 10:00:23;;;;;;;4.30;2.30;;;13.80;42.90;;;;;;6256514;23;20068;-92
2021/05/04 10:02:52;;;;;;;2.45;2.13;;;14.00;42.50;;;;;;6247828;23;20031;-94
2021/05/04 10:05:20;;;;;;;3.80;2.47;;;14.00;42.60;;;;;;6247562;22;20008;-93
2021/05/04 10:07:47;;;;;;;3.90;2.40;;;13.90;42.40;;;;;;6250666;22;20004;-93
2021/05/04 10:10:15;;;;;;;2.88;2.17;;;13.70;43.30;;;;;;6247376;22;20078;-94
2021/05/04 10:12:42;;;;;;;3.38;2.50;;;13.60;44.00;;;;;;6247410;22;20011;-92
2021/05/04 10:15:17;;;;;;;3.55;2.63;;;13.30;45.30;;;;;;6222376;23;20016;-94
2021/05/04 10:17:43;;;;;;;2.35;2.15;;;13.00;46.20;;;;;;6248213;23;20046;-94
2021/05/04 10:20:17;;;;;;;3.35;2.10;;;12.70;46.60;;;;;;6249002;22;20298;-93
2021/05/04 10:22:46;;;;;;;1.88;1.65;;;12.70;46.90;;;;;;6249795;23;20008;-93
2021/05/04 10:25:19;;;;;;;2.63;2.15;;;12.70;46.50;;;;;;6258083;22;20004;-93
2021/05/04 10:27:54;;;;;;;2.53;1.77;;;12.80;45.40;;;;;;6255042;23;20015;-93
2021/05/04 10:30:21;;;;;;;3.55;2.05;;;12.90;45.30;;;;;;6247482;22;20000;-94
2021/05/04 10:33:11;;;;;;;2.33;1.90;;;12.90;45.40;;;;;;6248086;22;20319;-94
2021/05/04 10:35:38;;;;;;;2.55;2.33;;;13.00;45.50;;;;;;6248842;23;20001;-93
2021/05/04 10:38:15;;;;;;;2.58;1.60;;;13.20;45.50;;;;;;6248711;22;20012;-93
2021/05/04 10:40:47;;;;;;;2.05;1.85;;;13.30;45.80;;;;;;6251136;22;19996;-92
2021/05/04 10:43:21;;;;;;;4.60;2.60;;;13.60;46.00;;;;;;6254646;22;20011;-91
2021/05/04 10:46:09;;;;;;;2.40;2.08;;;13.90;45.10;;;;;;6250136;22;20485;-93
2021/05/04 10:48:48;;;;;;;3.05;2.45;;;14.00;44.40;;;;;;6226798;23;20008;-93
2021/05/04 10:51:19;;;;;;;2.85;2.08;;;13.90;43.30;;;;;;6249779;22;20014;-93
2021/05/04 10:54:02;;;;;;;2.03;1.83;;;13.90;43.20;;;;;;6247335;22;20020;-93
2021/05/04 10:56:40;;;;;;;2.53;2.25;;;13.90;42.90;;;;;;6248447;23;20008;-95
2021/05/04 10:59:10;;;;;;;2.50;2.30;;;13.90;43.00;;;;;;6245456;23;20004;-92
2021/05/04 11:01:36;;;;;;;2.20;1.98;;;13.80;42.60;;;;;;6247917;22;20008;-93
2021/05/04 11:04:04;;;;;;;1.60;1.50;;;13.80;43.00;;;;;;6250180;22;20036;-92
2021/05/04 11:06:35;;;;;;;2.40;1.88;;;14.00;43.20;;;;;;6247865;22;20016;-92
2021/05/04 11:09:12;;;;;;;2.55;2.35;;;14.10;42.00;;;;;;6248681;22;20550;-92
2021/05/04 11:11:43;;;;;;;3.00;2.38;;;14.10;41.70;;;;;;6251394;22;20007;-92
2021/05/04 11:14:12;;;;;;;3.75;2.10;;;14.10;41.80;;;;;;6226935;23;20432;-93
2021/05/04 11:16:45;;;;;;;2.50;2.15;;;14.10;42.30;;;;;;6250424;22;20091;-92
2021/05/04 11:19:19;;;;;;;4.53;2.58;;;14.10;42.60;;;;;;6247023;23;20075;-91
2021/05/04 11:22:04;;;;;;;3.08;2.42;;;14.10;42.40;;;;;;6247162;23;20018;-91
2021/05/04 11:24:32;;;;;;;2.83;2.28;;;14.00;42.40;;;;;;6247920;22;20316;-92
2021/05/04 11:26:59;;;;;;;3.55;2.53;;;14.00;42.90;;;;;;6246506;22;20005;-93
2021/05/04 11:29:34;;;;;;;2.67;2.15;;;14.00;42.90;;;;;;6246459;22;20008;-93
2021/05/04 11:32:36;;;;;;;3.00;2.50;;;14.10;42.90;;;;;;6248228;22;20008;-93
2021/05/04 11:35:10;;;;;;;2.42;2.20;;;14.30;42.70;;;;;;6245540;23;20012;-94
2021/05/04 11:37:44;;;;;;;2.45;2.20;;;14.50;42.80;;;;;;6245024;23;20089;-95
2021/05/04 11:40:25;;;;;;;2.35;2.10;;;14.70;41.90;;;;;;6248458;22;20543;-92
2021/05/04 11:43:15;;;;;;;1.77;1.67;;;14.80;41.60;;;;;;6247668;22;20006;-92
2021/05/04 11:45:42;;;;;;;3.08;2.30;;;14.90;41.40;;;;;;6245593;23;20075;-93
2021/05/04 11:48:12;;;;;;;3.90;1.85;;;15.00;40.80;;;;;;6247467;22;20004;-93
2021/05/04 11:50:55;;;;;;;2.30;2.08;;;15.00;39.60;;;;;;6247599;22;20004;-92
2021/05/04 11:53:21;;;;;;;2.00;1.70;;;15.10;39.10;;;;;;6245807;22;20126;-91
2021/05/04 11:55:55;;;;;;;1.70;1.60;;;15.10;39.20;;;;;;6219986;23;20005;-92
2021/05/04 11:58:25;;;;;;;2.13;1.85;;;15.10;39.50;;;;;;6221374;23;20011;-92
2021/05/04 12:01:06;;;;;;;4.28;2.15;;;15.20;39.50;;;;;;6245447;22;20379;-92
2021/05/04 12:03:50;;;;;;;1.65;1.48;;;15.40;39.80;;;;;;6245840;23;20320;-92
2021/05/04 12:06:18;;;;;;;2.00;1.50;;;15.40;38.90;;;;;;6244354;23;20015;-92
2021/05/04 12:08:46;;;;;;;1.50;1.40;;;15.30;39.20;;;;;;6222675;23;20009;-93
2021/05/04 12:11:26;;;;;;;3.53;2.30;;;15.30;39.70;;;;;;6245826;23;20004;-92
2021/05/04 12:13:59;;;;;;;3.90;2.70;;;15.30;40.40;;;;;;6245858;22;20309;-93
2021/05/04 12:16:28;;;;;;;4.78;2.78;;;15.00;42.00;;;;;;6246434;22;20007;-91
2021/05/04 12:18:54;;;;;;;4.00;2.40;;;14.60;44.00;;;;;;6245551;22;20016;-92
2021/05/04 12:21:20;;;;;;;2.40;2.05;;;14.50;44.60;;;;;;6246522;22;20008;-92
2021/05/04 12:23:46;;;;;;;2.50;2.30;;;14.60;44.50;;;;;;6246978;22;20079;-91
2021/05/04 12:26:18;;;;;;;1.88;1.77;;;14.70;44.80;;;;;;6247487;22;20336;-92
2021/05/04 12:28:50;;;;;;;1.92;1.77;;;14.70;43.20;;;;;;6246280;23;20008;-93
2021/05/04 12:31:24;;;;;;;2.53;1.95;;;14.80;43.70;;;;;;6245904;23;20007;-91
2021/05/04 12:33:52;;;;;;;4.55;2.65;;;15.00;43.90;;;;;;6221441;23;19997;-92
2021/05/04 12:36:40;;;;;;;2.08;1.88;;;15.30;43.10;;;;;;6225490;23;20454;-91
2021/05/04 12:39:18;;;;;;;2.00;1.80;;;15.80;42.40;;;;;;6251235;22;20023;-93
2021/05/04 12:41:50;;;;;;;1.95;1.65;;;16.00;41.90;;;;;;6249466;23;20505;-92
2021/05/04 12:44:28;;;;;;;2.50;2.17;;;16.40;41.00;;;;;;6252797;23;20071;-91
2021/05/04 12:47:07;;;;;;;2.42;1.83;;;16.80;40.00;;;;;;6252083;22;20012;-91
2021/05/04 12:49:41;;;;;;;1.92;1.80;;;17.00;38.20;;;;;;6250628;23;20017;-92
2021/05/04 12:52:11;;;;;;;2.00;1.80;;;17.20;38.70;;;;;;6253719;23;20023;-92
2021/05/04 12:54:40;;;;;;;2.17;2.08;;;17.70;38.50;;;;;;6249415;22;20336;-93
2021/05/04 12:57:31;;;;;;;3.35;2.20;;;17.90;37.40;;;;;;6225936;23;20180;-94
2021/05/04 12:59:59;;;;;;;2.08;1.80;;;18.20;36.40;;;;;;6255626;22;20012;-94
2021/05/04 13:02:37;;;;;;;2.25;1.90;;;18.40;37.80;;;;;;6252363;23;20078;-95
2021/05/04 13:05:20;;;;;;;1.80;1.52;;;18.80;36.10;;;;;;6255172;23;20004;-93
2021/05/04 13:08:08;;;;;;;1.70;1.60;;;19.40;34.70;;;;;;6253465;22;20015;-94